Pasco, WA

9:56 AM PDT on September 05, 2015 (GMT -0700)
Phend Rd. Pasco, WA | | Change Station
CLOSE
Current Station
Personal Weather Station
Location: Pasco, WA
Elevation: 587 ft
Nearby Weather Stations

Elev 587 ft 46.34 °N, 119.07 °W | Updated 13 seconds ago

Overcast
Overcast
54.1 °F
Feels Like 54.1 °F
N
2.7
Wind Variable Wind from SSE
Gusts 4.9 mph

Today
High -- | Low -- °F
--% Chance of Precip.
Yesterday
High -- | Low -- °F
Precip. -- in
6:21 AM 7:27 PM
Waning Gibbous, 47% visible
Pressure 29.97 in
Visibility 10.0 miles
Clouds Overcast 8000 ft
Dew Point 51 °F
Humidity 90%
Rainfall 0.00 in
Snow Depth Not available.
UV 1.0 out of 12
Pollen .70 out of 12
Air Quality Not available.
Flu Activity Not available.
METAR KPSC 051653Z 16005KT 10SM OVC080 13/09 A2997 RMK AO2 RAE1559 SLP147 P0000 T01330094
Pressure 29.97 in
Visibility 10.0 miles
Clouds Overcast 8000 ft
Dew Point 51 °F
Humidity 90%
Rainfall 0.00 in
Snow Depth Not available.
UV 1.0 out of 12
Pollen .70 out of 12
Air Quality Not available.
Flu Activity Not available.
METAR KPSC 051653Z 16005KT 10SM OVC080 13/09 A2997 RMK AO2 RAE1559 SLP147 P0000 T01330094

10-Day Weather Forecast

×

Almanac

Astronomy

Sep. 05, 2015 Rise Set
Actual Time
Civil Twilight
Nautical Twilight
Astronomical Twilight
Moon
Length of Visible Light
Length of Day
Tomorrow will be .
, % of the Moon is Illuminated

Today's Extremes

State Highs State Lows

Community

WunderPhotos

Upload Photos

1,852,498 photos uploaded!

WunderBlogs® & News

Nearby

Air Quality

  Air Quality AQ Index Pollutant
Not available.

Snow Depth

Station Depth Elevation

Earthquake Activity

City Distance Mag. Time & Date
Minimum magnitude displayed is 2.5.

Coastal Water Temperatures

Place Temperature

Stations

Nearby Weather Stations

Station Location Temp. Windchill Dew Point Humidity Wind Precip. Elev Updated Type